Terminal Aerodrome Forecast
Issued by NWS

Home | Current Version | Previous Version | Text Only | Print | Product List | Glossary Off
Versions: 1 2 3 4 5 6 7 8 9 10 11 12 13 14

000
FTUS45 KGGW 232321
TAFSDY
TAF
KSDY 232321Z 2400/2424 VRB03KT P6SM -SHRA OVC030
     FM240600 35004KT P6SM -SHRA OVC020
     FM240900 34006KT P6SM -SHRA OVC010
     FM241200 35005KT P6SM VCSH OVC010
     FM241500 36007KT P6SM OVC020=

USA.gov is the U.S. government's official web portal to all federal, state and local government web resources and services.